createdAt,value
2022-09-26T00:00:10.000Z,21.50
2022-09-26T00:10:10.000Z,19.80
2022-09-26T00:20:10.000Z,21.50
2022-09-26T00:30:09.000Z,21.50
2022-09-26T00:50:09.000Z,18.70
2022-09-26T01:00:09.000Z,18.60
2022-09-26T01:10:09.000Z,22.00
2022-09-26T01:20:09.000Z,26.20
2022-09-26T01:30:09.000Z,45.10
2022-09-26T01:40:08.000Z,31.10
2022-09-26T01:50:08.000Z,28.80
2022-09-26T02:00:08.000Z,30.70
2022-09-26T02:20:08.000Z,23.30
2022-09-26T02:30:08.000Z,29.10
2022-09-26T02:40:08.000Z,39.60
2022-09-26T02:50:08.000Z,37.40
2022-09-26T03:00:07.000Z,40.30
2022-09-26T03:10:07.000Z,51.10
2022-09-26T03:20:07.000Z,38.40
2022-09-26T03:30:07.000Z,34.20
2022-09-26T03:50:07.000Z,32.30
2022-09-26T04:00:07.000Z,31.70
2022-09-26T04:10:07.000Z,30.40
2022-09-26T04:20:07.000Z,27.80
2022-09-26T04:30:07.000Z,35.50
2022-09-26T04:40:07.000Z,43.10
2022-09-26T04:50:07.000Z,31.30
2022-09-26T05:00:07.000Z,36.10
2022-09-26T05:20:07.000Z,35.90
2022-09-26T05:30:07.000Z,38.40
2022-09-26T05:40:07.000Z,35.40
2022-09-26T05:50:08.000Z,38.90
2022-09-26T06:00:08.000Z,30.30
2022-09-26T06:10:08.000Z,32.70
2022-09-26T06:20:08.000Z,36.10
2022-09-26T06:30:08.000Z,16.10
2022-09-26T06:50:08.000Z,10.40
2022-09-26T07:00:08.000Z,11.10
2022-09-26T07:10:08.000Z,16.90
2022-09-26T07:20:08.000Z,7.90
2022-09-26T07:30:08.000Z,10.90
2022-09-26T07:40:08.000Z,5.90
2022-09-26T07:50:08.000Z,9.80
2022-09-26T08:00:08.000Z,4.50
2022-09-26T08:20:08.000Z,5.60
2022-09-26T08:30:08.000Z,3.90
2022-09-26T08:40:07.000Z,5.50
2022-09-26T08:50:07.000Z,13.60
2022-09-26T09:00:07.000Z,3.60
2022-09-26T09:10:07.000Z,18.70
2022-09-26T09:20:06.000Z,7.00
2022-09-26T09:30:06.000Z,5.90
2022-09-26T09:50:05.000Z,10.40
2022-09-26T10:00:05.000Z,4.40
2022-09-26T10:10:04.000Z,3.70
2022-09-26T10:20:04.000Z,11.80
2022-09-26T10:30:03.000Z,10.70
2022-09-26T10:40:03.000Z,3.70
2022-09-26T10:50:02.000Z,8.40
2022-09-26T11:00:02.000Z,4.20
2022-09-26T11:20:01.000Z,4.70
2022-09-26T11:30:00.000Z,5.90
2022-09-26T11:40:00.000Z,3.30
2022-09-26T11:49:59.000Z,4.80
2022-09-26T11:59:59.000Z,4.10
2022-09-26T12:09:58.000Z,4.10
2022-09-26T12:19:57.000Z,3.70
2022-09-26T12:29:57.000Z,3.50
2022-09-26T12:49:56.000Z,3.50
2022-09-26T12:59:55.000Z,7.30
2022-09-26T13:09:55.000Z,4.10
2022-09-26T13:19:54.000Z,3.50
2022-09-26T13:29:54.000Z,3.90
2022-09-26T13:39:54.000Z,3.60
2022-09-26T13:49:53.000Z,17.10
2022-09-26T13:59:52.000Z,3.70
2022-09-26T14:19:51.000Z,3.90
2022-09-26T14:29:51.000Z,4.50
2022-09-26T14:39:50.000Z,3.50
2022-09-26T14:49:50.000Z,4.40
2022-09-26T14:59:49.000Z,3.60
2022-09-26T15:09:49.000Z,4.40
2022-09-26T15:19:48.000Z,4.20
2022-09-26T15:29:47.000Z,9.50
2022-09-26T15:49:46.000Z,3.60
2022-09-26T15:59:46.000Z,6.50
2022-09-26T16:09:46.000Z,4.00
2022-09-26T16:19:45.000Z,3.80
2022-09-26T16:29:45.000Z,3.50
2022-09-26T16:39:44.000Z,3.80
2022-09-26T16:49:44.000Z,3.70
2022-09-26T16:59:44.000Z,9.90
2022-09-26T16:59:44.000Z,9.90
2022-09-26T17:19:43.000Z,7.60
2022-09-26T17:29:43.000Z,3.80
2022-09-26T17:39:42.000Z,3.60
2022-09-26T17:49:42.000Z,3.90
2022-09-26T17:59:42.000Z,3.70
2022-09-26T18:09:42.000Z,4.00
2022-09-26T18:19:42.000Z,5.90
2022-09-26T18:29:41.000Z,4.30
2022-09-26T18:49:41.000Z,4.40
2022-09-26T18:59:41.000Z,4.00
2022-09-26T19:09:40.000Z,4.00
2022-09-26T19:19:40.000Z,3.80
2022-09-26T19:29:40.000Z,4.90
2022-09-26T19:39:40.000Z,5.10
2022-09-26T19:49:40.000Z,4.60
2022-09-26T19:59:39.000Z,9.30
2022-09-26T20:19:39.000Z,8.20
2022-09-26T20:29:39.000Z,4.00
2022-09-26T20:39:39.000Z,3.80
2022-09-26T20:49:38.000Z,3.60
2022-09-26T20:59:38.000Z,4.50
2022-09-26T21:09:38.000Z,3.80
2022-09-26T21:19:38.000Z,3.50
2022-09-26T21:29:38.000Z,3.50
2022-09-26T21:49:37.000Z,4.20
2022-09-26T21:59:37.000Z,3.80
2022-09-26T22:09:37.000Z,4.50
2022-09-26T22:19:37.000Z,4.20
2022-09-26T22:29:37.000Z,4.10
2022-09-26T22:39:37.000Z,4.40
2022-09-26T22:49:37.000Z,4.80
2022-09-26T22:59:37.000Z,4.40
2022-09-26T23:19:36.000Z,3.90
2022-09-26T23:29:36.000Z,9.00
2022-09-26T23:39:36.000Z,4.30
2022-09-26T23:49:36.000Z,4.20
2022-09-26T23:59:36.000Z,4.50
